createdAt,value
2023-04-23T00:01:39.550Z,99802.16
2023-04-23T00:06:43.487Z,99803.08
2023-04-23T00:11:46.914Z,99797.80
2023-04-23T00:16:50.275Z,99794.35
2023-04-23T00:21:53.179Z,99793.39
2023-04-23T00:26:56.207Z,99792.46
2023-04-23T00:31:59.419Z,99792.64
2023-04-23T00:37:06.619Z,99785.25
2023-04-23T00:42:12.786Z,99783.36
2023-04-23T00:47:17.040Z,99777.90
2023-04-23T00:52:20.148Z,99777.82
2023-04-23T00:57:26.916Z,99777.64
2023-04-23T01:02:32.537Z,99772.80
2023-04-23T01:07:36.643Z,99773.95
2023-04-23T01:12:40.111Z,99768.23
2023-04-23T01:17:43.519Z,99764.96
2023-04-23T01:22:46.761Z,99770.55
2023-04-23T01:27:50.944Z,99769.77
2023-04-23T01:32:57.884Z,99769.58
2023-04-23T01:38:04.019Z,99765.80
2023-04-23T01:43:09.120Z,99763.95
2023-04-23T01:48:12.368Z,99761.21
2023-04-23T01:53:15.784Z,99760.32
2023-04-23T01:58:19.718Z,99757.00
2023-04-23T02:03:23.155Z,99758.00
2023-04-23T02:08:28.086Z,99757.73
2023-04-23T02:13:31.026Z,99758.04
2023-04-23T02:18:33.996Z,99760.13
2023-04-23T02:23:36.895Z,99757.71
2023-04-23T02:28:39.721Z,99752.30
2023-04-23T02:33:43.012Z,99745.94
2023-04-23T02:38:47.774Z,99744.23
2023-04-23T02:43:50.785Z,99743.61
2023-04-23T02:48:53.669Z,99742.64
2023-04-23T02:53:56.879Z,99741.81
2023-04-23T02:58:59.941Z,99737.50
2023-04-23T03:04:03.993Z,99732.77
2023-04-23T03:09:07.138Z,99732.78
2023-04-23T03:14:10.129Z,99731.05
2023-04-23T03:19:12.989Z,99730.71
2023-04-23T03:24:16.738Z,99728.10
2023-04-23T03:29:19.564Z,99725.54
2023-04-23T03:34:22.467Z,99721.50
2023-04-23T03:39:25.378Z,99716.48
2023-04-23T03:44:28.401Z,99711.77
2023-04-23T03:49:31.510Z,99704.93
2023-04-23T03:54:34.500Z,99704.42
2023-04-23T03:59:37.620Z,99708.38
2023-04-23T04:04:41.530Z,99709.84
2023-04-23T04:09:45.361Z,99711.06
2023-04-23T04:14:48.262Z,99713.80
2023-04-23T04:19:51.855Z,99710.28
2023-04-23T04:24:54.891Z,99710.30
2023-04-23T04:29:57.700Z,99708.77
2023-04-23T04:35:01.111Z,99706.66
2023-04-23T04:40:07.593Z,99700.74
2023-04-23T04:45:11.825Z,99702.63
2023-04-23T04:50:14.738Z,99703.23
2023-04-23T04:55:17.991Z,99700.86
2023-04-23T05:00:23.318Z,99692.17
2023-04-23T05:05:27.616Z,99690.44
2023-04-23T05:10:31.185Z,99688.98
2023-04-23T05:15:34.038Z,99685.30
2023-04-23T05:20:38.312Z,99686.70
2023-04-23T05:25:41.318Z,99697.80
2023-04-23T05:30:44.214Z,99692.52
2023-04-23T05:35:47.116Z,99690.84
2023-04-23T05:40:50.119Z,99690.70
2023-04-23T05:45:53.094Z,99687.80
2023-04-23T05:50:56.034Z,99693.39
2023-04-23T05:55:58.847Z,99694.58
2023-04-23T06:01:01.952Z,99693.84
2023-04-23T06:06:04.948Z,99697.08
2023-04-23T06:11:08.663Z,99696.27
2023-04-23T06:16:11.589Z,99695.73
2023-04-23T06:21:14.779Z,99693.57
2023-04-23T06:26:17.838Z,99691.92
2023-04-23T06:31:20.821Z,99690.25
2023-04-23T06:36:23.699Z,99688.89
2023-04-23T06:41:26.549Z,99691.69
2023-04-23T06:46:29.412Z,99691.91
2023-04-23T06:51:32.383Z,99692.60
2023-04-23T06:56:35.368Z,99684.34
2023-04-23T07:01:38.212Z,99683.16
2023-04-23T07:06:41.127Z,99682.56
2023-04-23T07:11:44.240Z,99675.08
2023-04-23T07:16:47.416Z,99673.20
2023-04-23T07:21:50.360Z,99674.69
2023-04-23T07:26:54.085Z,99668.47
2023-04-23T07:31:57.039Z,99665.83
2023-04-23T07:37:00.014Z,99658.99
2023-04-23T07:42:03.002Z,99654.20
2023-04-23T07:47:05.905Z,99654.85
2023-04-23T07:52:09.424Z,99649.39
2023-04-23T07:57:12.468Z,99648.89
2023-04-23T08:02:15.634Z,99645.70
2023-04-23T08:07:19.237Z,99643.54
2023-04-23T08:12:22.175Z,99641.92
2023-04-23T08:17:25.565Z,99638.41
2023-04-23T08:22:28.692Z,99647.48
2023-04-23T08:27:31.595Z,99643.45
2023-04-23T08:32:34.567Z,99638.63
2023-04-23T08:37:39.247Z,99642.09
2023-04-23T08:42:49.227Z,99629.86
2023-04-23T08:47:52.143Z,99623.44
2023-04-23T08:52:56.727Z,99621.26
2023-04-23T08:58:00.028Z,99615.31
2023-04-23T09:03:03.366Z,99611.05
2023-04-23T09:08:07.431Z,99609.02
2023-04-23T09:13:13.371Z,99616.52
2023-04-23T09:18:17.593Z,99606.16
2023-04-23T09:23:23.730Z,99597.13
2023-04-23T09:28:37.990Z,99604.11
2023-04-23T09:33:40.901Z,99599.03
2023-04-23T09:38:43.897Z,99607.95
2023-04-23T09:43:48.167Z,99591.02
2023-04-23T09:48:51.248Z,99586.00
2023-04-23T09:53:54.357Z,99577.24
2023-04-23T09:58:57.370Z,99583.19
2023-04-23T10:04:00.585Z,99566.27
2023-04-23T10:09:03.991Z,99559.75
2023-04-23T10:14:08.273Z,99559.14
2023-04-23T10:19:15.274Z,99558.65
2023-04-23T10:24:21.605Z,99551.04
2023-04-23T10:29:32.191Z,99543.87
2023-04-23T10:34:35.218Z,99552.38
2023-04-23T10:39:38.568Z,99528.43
2023-04-23T10:49:49.447Z,99522.17
2023-04-23T10:55:00.225Z,99518.98
2023-04-23T11:00:04.876Z,99518.98
2023-04-23T11:05:09.824Z,99508.96
2023-04-23T11:10:14.283Z,99508.51
2023-04-23T11:15:19.587Z,99499.09
2023-04-23T11:20:24.181Z,99497.65
2023-04-23T11:25:28.825Z,99497.92
2023-04-23T11:30:32.154Z,99488.21
2023-04-23T11:35:40.716Z,99473.52
2023-04-23T11:40:48.507Z,99467.70
2023-04-23T11:45:51.456Z,99475.80
2023-04-23T11:50:54.814Z,99465.17
2023-04-23T11:55:58.079Z,99459.69
2023-04-23T12:01:02.353Z,99462.73
2023-04-23T12:06:06.161Z,99458.83
2023-04-23T12:11:08.992Z,99460.46
2023-04-23T12:16:11.841Z,99450.67
2023-04-23T12:21:15.105Z,99445.40
2023-04-23T12:26:19.926Z,99454.13
2023-04-23T12:31:26.301Z,99451.83
2023-04-23T12:36:30.876Z,99439.45
2023-04-23T12:41:33.780Z,99419.48
2023-04-23T12:46:37.114Z,99422.05
2023-04-23T12:51:39.916Z,99419.52
2023-04-23T12:56:42.802Z,99410.58
2023-04-23T13:01:45.853Z,99411.19
2023-04-23T13:06:49.264Z,99417.94
2023-04-23T13:11:52.350Z,99410.92
2023-04-23T13:16:55.266Z,99392.08
2023-04-23T13:21:58.354Z,99393.83
2023-04-23T13:27:02.075Z,99392.23
2023-04-23T13:32:05.026Z,99388.08
2023-04-23T13:37:09.523Z,99384.95
2023-04-23T13:42:12.625Z,99377.81
2023-04-23T13:47:16.052Z,99373.41
2023-04-23T13:52:18.946Z,99374.27
2023-04-23T13:57:21.953Z,99367.79
2023-04-23T14:02:24.933Z,99366.52
2023-04-23T14:07:27.871Z,99348.70
2023-04-23T14:12:31.084Z,99352.15
2023-04-23T14:17:34.142Z,99342.27
2023-04-23T14:22:37.296Z,99330.71
2023-04-23T14:27:45.552Z,99332.14
2023-04-23T14:32:50.091Z,99331.30
2023-04-23T14:37:53.490Z,99323.55
2023-04-23T14:43:01.906Z,99318.75
2023-04-23T14:48:11.480Z,99314.79
2023-04-23T14:53:14.377Z,99321.02
2023-04-23T14:58:17.286Z,99315.73
2023-04-23T15:03:21.002Z,99320.75
2023-04-23T15:08:23.970Z,99307.30
2023-04-23T15:13:38.618Z,99305.11
2023-04-23T15:18:41.492Z,99304.65
2023-04-23T15:23:44.233Z,99299.30
2023-04-23T15:28:48.025Z,99298.83
2023-04-23T15:33:50.831Z,99303.94
2023-04-23T15:38:53.838Z,99297.17
2023-04-23T15:43:56.786Z,99290.42
2023-04-23T15:49:00.678Z,99281.42
2023-04-23T15:54:06.132Z,99279.52
2023-04-23T15:59:08.902Z,99283.85
2023-04-23T16:04:12.634Z,99281.25
2023-04-23T16:09:16.258Z,99272.75
2023-04-23T16:14:19.287Z,99266.74
2023-04-23T16:19:22.390Z,99261.08
2023-04-23T16:24:25.306Z,99262.95
2023-04-23T16:29:28.086Z,99262.42
2023-04-23T16:34:30.900Z,99255.01
2023-04-23T16:39:33.805Z,99244.17
2023-04-23T16:44:36.712Z,99238.67
2023-04-23T16:49:39.787Z,99237.00
2023-04-23T16:54:42.931Z,99241.02
2023-04-23T16:59:45.949Z,99236.77
2023-04-23T17:04:49.150Z,99232.94
2023-04-23T17:09:52.277Z,99227.58
2023-04-23T17:14:55.298Z,99223.84
2023-04-23T17:19:58.048Z,99224.19
2023-04-23T17:25:00.784Z,99222.69
2023-04-23T17:30:04.640Z,99215.56
2023-04-23T17:35:10.474Z,99215.67
2023-04-23T17:40:13.713Z,99215.80
2023-04-23T17:45:17.444Z,99216.58
2023-04-23T17:50:20.302Z,99213.66
2023-04-23T17:55:23.524Z,99211.69
2023-04-23T18:00:28.776Z,99212.11
2023-04-23T18:05:31.772Z,99209.95
2023-04-23T18:10:34.792Z,99212.11
2023-04-23T18:15:38.606Z,99214.61
2023-04-23T18:20:41.410Z,99214.40
2023-04-23T18:25:44.386Z,99217.05
2023-04-23T18:30:47.815Z,99215.81
2023-04-23T18:35:53.355Z,99223.55
2023-04-23T18:40:59.168Z,99269.55
2023-04-23T18:46:02.259Z,99276.29
2023-04-23T18:51:25.660Z,99276.78
2023-04-23T18:56:28.618Z,99278.26
2023-04-23T19:01:31.972Z,99278.75
2023-04-23T19:06:35.122Z,99280.88
2023-04-23T19:11:38.356Z,99283.88
2023-04-23T19:16:41.157Z,99289.20
2023-04-23T19:21:44.057Z,99286.88
2023-04-23T19:26:47.082Z,99285.50
2023-04-23T19:31:50.008Z,99289.30
2023-04-23T19:36:53.029Z,99290.61
2023-04-23T19:41:55.835Z,99284.56
2023-04-23T19:46:58.681Z,99285.84
2023-04-23T19:52:03.907Z,99287.09
2023-04-23T19:57:06.816Z,99285.69
2023-04-23T20:02:09.702Z,99288.47
2023-04-23T20:07:13.136Z,99285.29
2023-04-23T20:12:15.942Z,99282.52
2023-04-23T20:17:18.716Z,99284.10
2023-04-23T20:22:21.534Z,99276.77
2023-04-23T20:27:26.292Z,99270.78
2023-04-23T20:32:29.022Z,99267.77
2023-04-23T20:37:31.794Z,99268.48
2023-04-23T20:42:39.740Z,99270.95
2023-04-23T20:47:44.655Z,99273.13
2023-04-23T20:52:47.553Z,99270.78
2023-04-23T20:57:50.502Z,99267.90
2023-04-23T21:02:54.419Z,99274.48
2023-04-23T21:07:57.803Z,99277.05
2023-04-23T21:13:01.046Z,99278.61
2023-04-23T21:18:04.363Z,99275.23
2023-04-23T21:23:07.588Z,99271.95
2023-04-23T21:28:10.928Z,99273.61
2023-04-23T21:33:14.296Z,99271.25
2023-04-23T21:38:18.390Z,99267.81
2023-04-23T21:43:21.504Z,99261.52
2023-04-23T21:48:24.310Z,99254.77
2023-04-23T21:53:27.117Z,99251.66
2023-04-23T21:58:31.411Z,99247.52
2023-04-23T22:03:38.661Z,99241.72
2023-04-23T22:08:45.075Z,99236.85
2023-04-23T22:13:47.894Z,99225.90
2023-04-23T22:18:50.754Z,99221.35
2023-04-23T22:23:53.521Z,99221.71
2023-04-23T22:28:56.453Z,99222.52
2023-04-23T22:33:59.204Z,99233.80
2023-04-23T22:39:02.379Z,99235.13
2023-04-23T22:44:05.166Z,99234.66
2023-04-23T22:49:11.220Z,99233.64
2023-04-23T22:54:14.212Z,99231.23
2023-04-23T22:59:17.027Z,99230.40
2023-04-23T23:04:19.902Z,99224.90
2023-04-23T23:09:22.867Z,99225.94
2023-04-23T23:14:26.688Z,99223.32
2023-04-23T23:19:31.062Z,99225.80
2023-04-23T23:24:34.802Z,99217.16
2023-04-23T23:29:37.654Z,99210.63
2023-04-23T23:34:40.515Z,99207.64
2023-04-23T23:39:43.558Z,99208.10
2023-04-23T23:44:46.659Z,99205.30
2023-04-23T23:49:49.882Z,99197.34
2023-04-23T23:54:52.681Z,99191.90
2023-04-23T23:59:56.107Z,99189.09
